FRA weather

Frankfurt am Main Airport
Frankfurt am Main, Hesse, Germany

Public forecast

Using degrees Celsius for public forecast. Weather courtesy of forecast.io.

Current aviation weather report (METAR) for Frankfurt am Main Airport

Retrieved 2020/04/05 00:20 UTC (11 minutes ago):

EDDF 050020Z 01008KT CAVOK 08/00 Q1024 NOSIG

Aviation forecast (TAF) for Frankfurt am Main Airport

Retrieved 2020-04-05 00:44 UTC (0 seconds ago):

TAF EDDF 042300Z 0500/0606 04005KT CAVOK TEMPO 0508/0517 11008KT